createdAt,value
2023-02-18T00:00:13.717Z,1005.11
2023-02-18T00:01:13.984Z,1005.07
2023-02-18T00:02:13.187Z,1005.05
2023-02-18T00:03:13.607Z,1005.04
2023-02-18T00:04:13.618Z,1005.08
2023-02-18T00:05:13.797Z,1005.03
2023-02-18T00:06:13.852Z,1004.99
2023-02-18T00:07:13.970Z,1005.05
2023-02-18T00:08:13.254Z,1004.99
2023-02-18T00:09:13.369Z,1005.00
2023-02-18T00:10:13.223Z,1004.99
2023-02-18T00:11:13.271Z,1005.06
2023-02-18T00:12:13.364Z,1005.03
2023-02-18T00:13:13.506Z,1005.04
2023-02-18T00:14:13.670Z,1005.10
2023-02-18T00:15:13.815Z,1005.08
2023-02-18T00:16:13.878Z,1005.00
2023-02-18T00:17:13.004Z,1005.00
2023-02-18T00:18:13.217Z,1004.99
2023-02-18T00:19:13.139Z,1004.96
2023-02-18T00:20:13.026Z,1005.01
2023-02-18T00:21:12.968Z,1005.05
2023-02-18T00:22:13.036Z,1005.02
2023-02-18T00:23:13.119Z,1004.99
2023-02-18T00:24:13.093Z,1004.96
2023-02-18T00:25:13.262Z,1005.03
2023-02-18T00:26:13.267Z,1005.02
2023-02-18T00:27:13.277Z,1005.00
2023-02-18T00:28:13.301Z,1004.96
2023-02-18T00:29:13.249Z,1005.00
2023-02-18T00:30:13.358Z,1004.95
2023-02-18T00:31:13.608Z,1004.98
2023-02-18T00:32:13.712Z,1004.97
2023-02-18T00:34:14.038Z,1005.00
2023-02-18T00:35:12.972Z,1004.90
2023-02-18T00:36:12.827Z,1004.91
2023-02-18T00:37:13.783Z,1004.89
2023-02-18T00:38:13.793Z,1004.83
2023-02-18T00:39:13.831Z,1004.87
2023-02-18T00:40:14.021Z,1004.76
2023-02-18T00:41:13.204Z,1004.84
2023-02-18T00:42:13.175Z,1004.73
2023-02-18T00:43:13.088Z,1004.77
2023-02-18T00:44:13.298Z,1004.75
2023-02-18T00:45:13.328Z,1004.65
2023-02-18T00:46:13.412Z,1004.66
2023-02-18T00:47:13.808Z,1004.61
2023-02-18T00:48:13.976Z,1004.57
2023-02-18T00:49:13.041Z,1004.52
2023-02-18T00:50:12.906Z,1004.59
2023-02-18T00:51:12.889Z,1004.60
2023-02-18T00:52:12.842Z,1004.63
2023-02-18T00:53:13.892Z,1004.67
2023-02-18T00:54:12.827Z,1004.64
2023-02-18T00:55:13.962Z,1004.61
2023-02-18T00:56:13.423Z,1004.62
2023-02-18T00:57:13.565Z,1004.62
2023-02-18T00:58:13.427Z,1004.64
2023-02-18T00:59:13.410Z,1004.62
2023-02-18T01:00:13.444Z,1004.57
2023-02-18T01:01:13.404Z,1004.59
2023-02-18T01:02:13.354Z,1004.49
2023-02-18T01:03:13.609Z,1004.58
2023-02-18T01:04:13.658Z,1004.56
2023-02-18T01:05:13.761Z,1004.49
2023-02-18T01:06:14.064Z,1004.48
2023-02-18T01:07:13.016Z,1004.48
2023-02-18T01:08:12.930Z,1004.46
2023-02-18T01:09:12.824Z,1004.48
2023-02-18T01:10:14.164Z,1004.51
2023-02-18T01:11:13.190Z,1004.46
2023-02-18T01:12:13.251Z,1004.50
2023-02-18T01:13:13.605Z,1004.47
2023-02-18T01:14:14.294Z,1004.54
2023-02-18T01:15:13.421Z,1004.53
2023-02-18T01:16:13.468Z,1004.53
2023-02-18T01:17:13.389Z,1004.57
2023-02-18T01:18:13.302Z,1004.59
2023-02-18T01:19:13.477Z,1004.56
2023-02-18T01:20:14.020Z,1004.61
2023-02-18T01:21:13.018Z,1004.58
2023-02-18T01:22:13.193Z,1004.44
2023-02-18T01:23:13.094Z,1004.56
2023-02-18T01:24:13.404Z,1004.56
2023-02-18T01:25:13.308Z,1004.53
2023-02-18T01:26:13.653Z,1004.51
2023-02-18T01:27:13.609Z,1004.59
2023-02-18T01:28:13.498Z,1004.51
2023-02-18T01:29:13.817Z,1004.55
2023-02-18T01:30:13.823Z,1004.57
2023-02-18T01:31:14.288Z,1004.52
2023-02-18T01:32:13.528Z,1004.50
2023-02-18T01:33:13.710Z,1004.52
2023-02-18T01:34:13.761Z,1004.50
2023-02-18T01:35:13.853Z,1004.49
2023-02-18T01:36:13.783Z,1004.52
2023-02-18T01:37:13.732Z,1004.42
2023-02-18T01:38:13.790Z,1004.44
2023-02-18T01:39:14.036Z,1004.49
2023-02-18T01:40:12.930Z,1004.41
2023-02-18T01:41:12.934Z,1004.41
2023-02-18T01:42:13.444Z,1004.38
2023-02-18T01:43:13.360Z,1004.34
2023-02-18T01:44:13.278Z,1004.32
2023-02-18T01:45:13.277Z,1004.30
2023-02-18T01:46:13.337Z,1004.33
2023-02-18T01:47:13.246Z,1004.24
2023-02-18T01:48:13.538Z,1004.29
2023-02-18T01:49:19.138Z,1004.29
2023-02-18T01:50:13.228Z,1004.30
2023-02-18T01:51:18.521Z,1004.27
2023-02-18T01:52:13.671Z,1004.25
2023-02-18T01:53:13.753Z,1004.26
2023-02-18T01:54:13.687Z,1004.25
2023-02-18T01:55:13.701Z,1004.25
2023-02-18T01:56:13.656Z,1004.29
2023-02-18T01:57:13.847Z,1004.22
2023-02-18T01:58:13.756Z,1004.30
2023-02-18T01:59:13.950Z,1004.24
2023-02-18T02:00:18.192Z,1004.26
2023-02-18T02:01:13.343Z,1004.28
2023-02-18T02:02:13.424Z,1004.31
2023-02-18T02:03:13.355Z,1004.34
2023-02-18T02:04:13.322Z,1004.24
2023-02-18T02:05:13.522Z,1004.27
2023-02-18T02:06:13.458Z,1004.16
2023-02-18T02:07:13.371Z,1004.29
2023-02-18T02:08:13.436Z,1004.31
2023-02-18T02:09:13.366Z,1004.18
2023-02-18T02:10:13.199Z,1004.25
2023-02-18T02:11:13.120Z,1004.15
2023-02-18T02:12:13.027Z,1004.24
2023-02-18T02:13:12.948Z,1004.26
2023-02-18T02:14:12.940Z,1004.20
2023-02-18T02:15:13.272Z,1004.24
2023-02-18T02:16:13.600Z,1004.25
2023-02-18T02:17:13.884Z,1004.27
2023-02-18T02:18:13.227Z,1004.24
2023-02-18T02:19:23.545Z,1004.25
2023-02-18T02:20:13.509Z,1004.27
2023-02-18T02:21:13.521Z,1004.26
2023-02-18T02:22:14.066Z,1004.31
2023-02-18T02:23:13.127Z,1004.22
2023-02-18T02:24:13.126Z,1004.21
2023-02-18T02:25:13.233Z,1004.22
2023-02-18T02:26:13.156Z,1004.20
2023-02-18T02:27:13.097Z,1004.23
2023-02-18T02:28:13.168Z,1004.17
2023-02-18T02:29:13.113Z,1004.11
2023-02-18T02:30:13.280Z,1004.08
2023-02-18T02:31:13.696Z,1004.07
2023-02-18T02:32:13.699Z,1004.07
2023-02-18T02:33:13.826Z,1004.00
2023-02-18T02:34:13.966Z,1003.99
2023-02-18T02:35:12.904Z,1003.98
2023-02-18T02:36:12.816Z,1003.95
2023-02-18T02:37:13.923Z,1003.95
2023-02-18T02:38:12.899Z,1003.93
2023-02-18T02:39:12.928Z,1003.91
2023-02-18T02:40:12.804Z,1003.93
2023-02-18T02:41:14.036Z,1003.87
2023-02-18T02:42:13.008Z,1003.95
2023-02-18T02:43:13.157Z,1003.89
2023-02-18T02:44:13.155Z,1003.90
2023-02-18T02:45:13.049Z,1003.83
2023-02-18T02:46:13.393Z,1003.82
2023-02-18T02:47:14.428Z,1003.82
2023-02-18T02:48:14.161Z,1003.84
2023-02-18T02:49:13.190Z,1003.82
2023-02-18T02:50:13.383Z,1003.87
2023-02-18T02:51:13.358Z,1003.83
2023-02-18T02:52:13.398Z,1003.84
2023-02-18T02:53:13.405Z,1003.81
2023-02-18T02:54:13.288Z,1003.84
2023-02-18T02:55:13.287Z,1003.86
2023-02-18T02:56:13.364Z,1003.84
2023-02-18T02:57:13.328Z,1003.80
2023-02-18T02:58:13.505Z,1003.83
2023-02-18T02:59:13.456Z,1003.79
2023-02-18T03:00:14.500Z,1003.82
2023-02-18T03:01:13.755Z,1003.74
2023-02-18T03:02:13.875Z,1003.73
2023-02-18T03:03:14.325Z,1003.73
2023-02-18T03:04:13.677Z,1003.70
2023-02-18T03:05:13.597Z,1003.65
2023-02-18T03:06:13.488Z,1003.67
2023-02-18T03:07:13.616Z,1003.63
2023-02-18T03:08:13.542Z,1003.72
2023-02-18T03:09:13.510Z,1003.60
2023-02-18T03:10:13.465Z,1003.57
2023-02-18T03:11:13.465Z,1003.58
2023-02-18T03:12:13.403Z,1003.51
2023-02-18T03:13:13.465Z,1003.43
2023-02-18T03:14:13.576Z,1003.48
2023-02-18T03:15:13.635Z,1003.47
2023-02-18T03:16:13.821Z,1003.35
2023-02-18T03:17:13.886Z,1003.37
2023-02-18T03:18:14.317Z,1003.33
2023-02-18T03:19:13.253Z,1003.24
2023-02-18T03:20:13.274Z,1003.26
2023-02-18T03:21:13.236Z,1003.35
2023-02-18T03:22:13.268Z,1003.28
2023-02-18T03:23:13.605Z,1003.26
2023-02-18T03:24:13.709Z,1003.27
2023-02-18T03:25:13.989Z,1003.23
2023-02-18T03:26:13.105Z,1003.24
2023-02-18T03:27:13.171Z,1003.20
2023-02-18T03:28:13.460Z,1003.20
2023-02-18T03:29:13.816Z,1003.11
2023-02-18T03:30:13.985Z,1003.09
2023-02-18T03:31:12.952Z,1003.18
2023-02-18T03:32:18.441Z,1003.16
2023-02-18T03:33:13.754Z,1003.12
2023-02-18T03:34:13.685Z,1003.12
2023-02-18T03:35:13.690Z,1003.11
2023-02-18T03:36:14.106Z,1003.10
2023-02-18T03:37:12.976Z,1003.08
2023-02-18T03:38:14.173Z,1003.04
2023-02-18T03:39:13.492Z,1003.04
2023-02-18T03:40:13.451Z,1003.07
2023-02-18T03:41:13.442Z,1003.04
2023-02-18T03:42:13.723Z,1003.04
2023-02-18T03:43:13.604Z,1003.01
2023-02-18T03:44:13.807Z,1003.05
2023-02-18T03:45:13.774Z,1002.99
2023-02-18T03:46:13.695Z,1003.04
2023-02-18T03:47:13.859Z,1003.06
2023-02-18T03:48:13.854Z,1002.97
2023-02-18T03:49:13.809Z,1002.96
2023-02-18T03:50:13.737Z,1002.96
2023-02-18T03:51:14.146Z,1002.92
2023-02-18T03:52:13.408Z,1003.02
2023-02-18T03:53:13.383Z,1002.93
2023-02-18T03:54:13.467Z,1002.94
2023-02-18T03:55:13.563Z,1002.89
2023-02-18T03:56:13.888Z,1002.90
2023-02-18T03:57:13.910Z,1002.86
2023-02-18T03:58:12.757Z,1002.88
2023-02-18T03:59:14.029Z,1002.86
2023-02-18T04:00:13.119Z,1002.81
2023-02-18T04:01:13.110Z,1002.83
2023-02-18T04:02:13.175Z,1002.85
2023-02-18T04:03:13.099Z,1002.87
2023-02-18T04:04:13.271Z,1002.81
2023-02-18T04:05:13.456Z,1002.76
2023-02-18T04:06:13.678Z,1002.80
2023-02-18T04:07:13.811Z,1002.76
2023-02-18T04:08:13.828Z,1002.76
2023-02-18T04:09:13.823Z,1002.76
2023-02-18T04:10:14.011Z,1002.72
2023-02-18T04:11:12.946Z,1002.74
2023-02-18T04:12:12.968Z,1002.73
2023-02-18T04:13:13.021Z,1002.67
2023-02-18T04:14:13.254Z,1002.72
2023-02-18T04:15:13.227Z,1002.75
2023-02-18T04:16:13.271Z,1002.66
2023-02-18T04:17:13.305Z,1002.72
2023-02-18T04:18:13.366Z,1002.69
2023-02-18T04:19:13.653Z,1002.69
2023-02-18T04:20:13.753Z,1002.62
2023-02-18T04:21:13.755Z,1002.59
2023-02-18T04:22:13.717Z,1002.71
2023-02-18T04:23:13.664Z,1002.66
2023-02-18T04:24:13.671Z,1002.68
2023-02-18T04:25:13.933Z,1002.67
2023-02-18T04:26:12.860Z,1002.63
2023-02-18T04:27:13.766Z,1002.62
2023-02-18T04:28:13.069Z,1002.55
2023-02-18T04:29:13.080Z,1002.52
2023-02-18T04:30:13.171Z,1002.55
2023-02-18T04:31:13.626Z,1002.60
2023-02-18T04:32:14.020Z,1002.56
2023-02-18T04:33:13.050Z,1002.57
2023-02-18T04:34:13.535Z,1002.54
2023-02-18T04:35:13.745Z,1002.52
2023-02-18T04:36:13.836Z,1002.54
2023-02-18T04:37:14.290Z,1002.49
2023-02-18T04:38:13.153Z,1002.44
2023-02-18T04:39:13.524Z,1002.42
2023-02-18T04:40:13.806Z,1002.45
2023-02-18T04:41:13.816Z,1002.40
2023-02-18T04:42:13.663Z,1002.32
2023-02-18T04:43:13.569Z,1002.33
2023-02-18T04:44:13.592Z,1002.30
2023-02-18T04:45:13.878Z,1002.21
2023-02-18T04:46:13.382Z,1002.23
2023-02-18T04:47:13.345Z,1002.22
2023-02-18T04:48:13.486Z,1002.26
2023-02-18T04:49:13.542Z,1002.20
2023-02-18T04:50:13.532Z,1002.29
2023-02-18T04:51:13.623Z,1002.19
2023-02-18T04:52:14.090Z,1002.20
2023-02-18T04:53:13.122Z,1002.11
2023-02-18T04:54:13.324Z,1002.11
2023-02-18T04:55:14.106Z,1002.08
2023-02-18T04:56:13.392Z,1002.26
2023-02-18T04:57:13.583Z,1002.11
2023-02-18T04:58:14.040Z,1002.08
2023-02-18T04:59:13.546Z,1002.07
2023-02-18T05:00:13.459Z,1002.05
2023-02-18T05:01:18.613Z,1002.06
2023-02-18T05:02:13.576Z,1002.06
2023-02-18T05:03:13.852Z,1002.13
2023-02-18T05:04:12.842Z,1002.01
2023-02-18T05:05:14.148Z,1002.04
2023-02-18T05:06:13.216Z,1002.01
2023-02-18T05:07:13.513Z,1001.99
2023-02-18T05:08:13.772Z,1002.04
2023-02-18T05:09:13.764Z,1002.01
2023-02-18T05:10:13.702Z,1001.97
2023-02-18T05:11:13.764Z,1001.98
2023-02-18T05:12:13.695Z,1001.94
2023-02-18T05:13:13.959Z,1002.00
2023-02-18T05:14:13.231Z,1001.96
2023-02-18T05:15:13.289Z,1001.97
2023-02-18T05:16:13.396Z,1001.92
2023-02-18T05:17:13.462Z,1002.02
2023-02-18T05:18:13.460Z,1001.94
2023-02-18T05:19:13.611Z,1001.99
2023-02-18T05:20:13.567Z,1001.87
2023-02-18T05:21:13.654Z,1001.85
2023-02-18T05:22:13.584Z,1001.87
2023-02-18T05:23:13.657Z,1001.90
2023-02-18T05:24:13.486Z,1001.82
2023-02-18T05:25:13.344Z,1001.88
2023-02-18T05:26:13.249Z,1001.87
2023-02-18T05:27:13.560Z,1001.81
2023-02-18T05:28:13.699Z,1001.80
2023-02-18T05:29:13.751Z,1001.74
2023-02-18T05:30:13.863Z,1001.74
2023-02-18T05:31:13.152Z,1001.73
2023-02-18T05:32:13.385Z,1001.73
2023-02-18T05:33:13.609Z,1001.75
2023-02-18T05:34:13.957Z,1001.75
2023-02-18T05:35:13.233Z,1001.74
2023-02-18T05:36:13.392Z,1001.72
2023-02-18T05:37:13.659Z,1001.68
2023-02-18T05:38:13.763Z,1001.65
2023-02-18T05:39:13.729Z,1001.69
2023-02-18T05:40:13.874Z,1001.65
2023-02-18T05:41:13.888Z,1001.66
2023-02-18T05:42:13.088Z,1001.59
2023-02-18T05:43:13.042Z,1001.66
2023-02-18T05:44:12.989Z,1001.65
2023-02-18T05:45:13.136Z,1001.54
2023-02-18T05:46:13.064Z,1001.58
2023-02-18T05:47:13.511Z,1001.59
2023-02-18T05:48:13.399Z,1001.49
2023-02-18T05:49:13.322Z,1001.42
2023-02-18T05:50:13.226Z,1001.40
2023-02-18T05:51:13.165Z,1001.38
2023-02-18T05:52:12.988Z,1001.41
2023-02-18T05:53:12.909Z,1001.40
2023-02-18T05:54:12.829Z,1001.30
2023-02-18T05:55:13.692Z,1001.31
2023-02-18T05:56:13.626Z,1001.33
2023-02-18T05:57:13.500Z,1001.31
2023-02-18T05:58:13.408Z,1001.30
2023-02-18T05:59:13.431Z,1001.29
2023-02-18T06:00:13.447Z,1001.10
2023-02-18T06:01:13.475Z,1001.22
2023-02-18T06:02:13.406Z,1001.20
2023-02-18T06:03:13.793Z,1001.24
2023-02-18T06:04:13.823Z,1001.24
2023-02-18T06:05:13.856Z,1001.19
2023-02-18T06:06:14.083Z,1001.10
2023-02-18T06:07:13.377Z,1001.14
2023-02-18T06:08:13.743Z,1001.21
2023-02-18T06:09:13.803Z,1001.21
2023-02-18T06:10:13.679Z,1001.27
2023-02-18T06:11:14.166Z,1001.25
2023-02-18T06:12:13.314Z,1001.24
2023-02-18T06:13:13.396Z,1001.27
2023-02-18T06:14:18.519Z,1001.18
2023-02-18T06:15:13.675Z,1001.25
2023-02-18T06:16:13.820Z,1001.17
2023-02-18T06:17:14.037Z,1001.24
2023-02-18T06:18:13.432Z,1001.15
2023-02-18T06:19:13.771Z,1001.20
2023-02-18T06:20:13.605Z,1001.20
2023-02-18T06:21:13.523Z,1001.18
2023-02-18T06:22:13.566Z,1001.20
2023-02-18T06:23:13.533Z,1001.07
2023-02-18T06:24:13.539Z,1001.04
2023-02-18T06:25:13.473Z,1001.12
2023-02-18T06:26:13.997Z,1001.02
2023-02-18T06:27:12.817Z,1000.99
2023-02-18T06:28:13.856Z,1001.00
2023-02-18T06:29:13.974Z,1001.02
2023-02-18T06:30:13.063Z,1000.95
2023-02-18T06:31:13.125Z,1001.01
2023-02-18T06:32:13.511Z,1000.94
2023-02-18T06:33:13.465Z,1000.97
2023-02-18T06:34:13.417Z,1001.05
2023-02-18T06:35:13.529Z,1000.98
2023-02-18T06:36:13.470Z,1000.97
2023-02-18T06:37:13.425Z,1000.99
2023-02-18T06:38:13.619Z,1001.07
2023-02-18T06:39:13.863Z,1001.02
2023-02-18T06:40:13.757Z,1000.97
2023-02-18T06:41:13.565Z,1001.02
2023-02-18T06:42:13.680Z,1001.06
2023-02-18T06:43:13.553Z,1001.01
2023-02-18T06:44:13.457Z,1001.09
2023-02-18T06:45:13.348Z,1001.11
2023-02-18T06:46:13.615Z,1001.08
2023-02-18T06:47:13.827Z,1001.01
2023-02-18T06:48:14.036Z,1001.05
2023-02-18T06:49:13.126Z,1001.06
2023-02-18T06:50:13.017Z,1001.05
2023-02-18T06:51:13.150Z,1001.17
2023-02-18T06:52:13.250Z,1001.03
2023-02-18T06:53:13.470Z,1000.99
2023-02-18T06:54:13.581Z,1000.97
2023-02-18T06:55:13.720Z,1001.00
2023-02-18T06:56:13.706Z,1001.10
2023-02-18T06:57:13.696Z,1001.04
2023-02-18T06:58:13.722Z,1001.12
2023-02-18T06:59:13.720Z,1001.03
2023-02-18T07:00:13.824Z,1001.05
2023-02-18T07:01:14.182Z,1001.06
2023-02-18T07:02:13.329Z,1001.11
2023-02-18T07:03:13.443Z,1001.14
2023-02-18T07:04:13.496Z,1001.16
2023-02-18T07:05:13.654Z,1001.13
2023-02-18T07:06:13.577Z,1001.05
2023-02-18T07:07:13.951Z,1001.16
2023-02-18T07:08:13.186Z,1001.05
2023-02-18T07:09:13.644Z,1001.03
2023-02-18T07:10:13.791Z,1001.09
2023-02-18T07:11:13.947Z,1001.02
2023-02-18T07:12:18.066Z,1001.07
2023-02-18T07:13:13.329Z,1001.00
2023-02-18T07:14:13.303Z,1000.95
2023-02-18T07:15:13.276Z,1001.04
2023-02-18T07:16:13.520Z,1000.93
2023-02-18T07:17:13.488Z,1000.92
2023-02-18T07:18:13.424Z,1000.85
2023-02-18T07:19:14.891Z,1000.89
2023-02-18T07:20:13.001Z,1000.89
2023-02-18T07:21:12.941Z,1000.76
2023-02-18T07:22:13.063Z,1000.90
2023-02-18T07:23:13.628Z,1000.83
2023-02-18T07:24:13.856Z,1001.03
2023-02-18T07:25:14.051Z,1000.83
2023-02-18T07:26:12.969Z,1000.81
2023-02-18T07:27:13.256Z,1000.92
2023-02-18T07:28:13.627Z,1000.90
2023-02-18T07:29:13.849Z,1000.90
2023-02-18T07:30:13.788Z,1001.01
2023-02-18T07:31:13.988Z,1001.09
2023-02-18T07:32:18.253Z,1000.97
2023-02-18T07:33:13.492Z,1001.01
2023-02-18T07:34:13.660Z,1001.10
2023-02-18T07:35:13.610Z,1000.85
2023-02-18T07:36:13.985Z,1001.16
2023-02-18T07:37:13.009Z,1001.09
2023-02-18T07:38:23.020Z,1001.22
2023-02-18T07:39:12.962Z,1001.18
2023-02-18T07:40:12.923Z,1001.19
2023-02-18T07:41:13.336Z,1001.12
2023-02-18T07:42:14.876Z,1001.21
2023-02-18T07:43:13.065Z,1001.21
2023-02-18T07:44:12.993Z,1001.20
2023-02-18T07:45:13.187Z,1001.18
2023-02-18T07:46:13.488Z,1001.11
2023-02-18T07:47:18.521Z,1001.18
2023-02-18T07:48:13.388Z,1001.13
2023-02-18T07:49:14.627Z,1001.21
2023-02-18T07:50:13.690Z,1001.12
2023-02-18T07:51:13.572Z,1001.22
2023-02-18T07:52:13.617Z,1001.28
2023-02-18T07:53:13.558Z,1001.22
2023-02-18T07:54:13.583Z,1001.17
2023-02-18T07:55:13.530Z,1001.18
2023-02-18T07:56:13.731Z,1001.14
2023-02-18T07:57:13.557Z,1001.16
2023-02-18T07:58:13.576Z,1001.20
2023-02-18T07:59:13.479Z,1001.19
2023-02-18T08:00:13.397Z,1001.22
2023-02-18T08:01:18.471Z,1001.28
2023-02-18T08:02:13.433Z,1001.34
2023-02-18T08:03:13.594Z,1001.38
2023-02-18T08:04:13.634Z,1001.25
2023-02-18T08:05:13.612Z,1001.41
2023-02-18T08:06:13.674Z,1001.31
2023-02-18T08:07:14.161Z,1001.24
2023-02-18T08:08:13.229Z,1001.26
2023-02-18T08:09:13.162Z,1001.25
2023-02-18T08:10:13.178Z,1001.28
2023-02-18T08:11:18.989Z,1001.37
2023-02-18T08:12:14.025Z,1001.38
2023-02-18T08:13:12.982Z,1001.22
2023-02-18T08:14:12.927Z,1001.46
2023-02-18T08:15:12.960Z,1001.40
2023-02-18T08:16:12.959Z,1001.37
2023-02-18T08:17:12.982Z,1001.50
2023-02-18T08:18:13.421Z,1001.46
2023-02-18T08:19:13.803Z,1001.49
2023-02-18T08:20:13.751Z,1001.43
2023-02-18T08:21:13.920Z,1001.42
2023-02-18T08:22:12.746Z,1001.50
2023-02-18T08:23:13.778Z,1001.36
2023-02-18T08:24:13.747Z,1001.43
2023-02-18T08:25:24.120Z,1001.34
2023-02-18T08:26:12.872Z,1001.41
2023-02-18T08:27:13.973Z,1001.40
2023-02-18T08:28:13.083Z,1001.41
2023-02-18T08:29:13.422Z,1001.45
2023-02-18T08:30:18.982Z,1001.37
2023-02-18T08:31:51.530Z,1001.49
2023-02-18T08:32:13.225Z,1001.39
2023-02-18T08:33:13.703Z,1001.44
2023-02-18T08:34:13.569Z,1001.34
2023-02-18T08:35:13.517Z,1001.26
2023-02-18T08:36:13.864Z,1001.39
2023-02-18T08:37:54.153Z,1001.23
2023-02-18T08:38:13.621Z,1001.37
2023-02-18T08:39:13.594Z,1001.42
2023-02-18T08:40:13.537Z,1001.39
2023-02-18T08:41:13.352Z,1001.38
2023-02-18T08:42:13.358Z,1001.44
2023-02-18T08:43:13.373Z,1001.25
2023-02-18T08:44:13.415Z,1001.35
2023-02-18T08:45:13.343Z,1001.40
2023-02-18T08:46:16.078Z,1001.45
2023-02-18T08:48:13.728Z,1001.33
2023-02-18T08:48:19.714Z,1001.34
2023-02-18T08:49:13.652Z,1001.42
2023-02-18T08:50:13.782Z,1001.44
2023-02-18T08:51:14.014Z,1001.45
2023-02-18T08:52:12.953Z,1001.38
2023-02-18T08:53:13.066Z,1001.44
2023-02-18T08:54:13.132Z,1001.27
2023-02-18T08:55:12.962Z,1001.37
2023-02-18T08:56:13.788Z,1001.38
2023-02-18T08:57:13.897Z,1001.39
2023-02-18T08:58:13.000Z,1001.37
2023-02-18T08:59:13.061Z,1001.27
2023-02-18T09:00:15.330Z,1001.39
2023-02-18T09:01:13.888Z,1001.21
2023-02-18T09:02:12.901Z,1001.40
2023-02-18T09:03:13.072Z,1001.41
2023-02-18T09:04:13.027Z,1001.42
2023-02-18T09:05:13.194Z,1001.35
2023-02-18T09:06:13.244Z,1001.40
2023-02-18T09:07:13.128Z,1001.28
2023-02-18T09:08:51.333Z,1001.14
2023-02-18T09:09:15.835Z,1001.32
2023-02-18T09:10:14.012Z,1001.29
2023-02-18T09:11:13.065Z,1001.21
2023-02-18T09:12:12.996Z,1001.31
2023-02-18T09:13:12.949Z,1001.19
2023-02-18T09:14:44.577Z,1001.13
2023-02-18T09:15:13.780Z,1001.20
2023-02-18T09:16:27.336Z,1001.13
2023-02-18T09:17:13.975Z,1001.17
2023-02-18T09:18:13.270Z,1001.20
2023-02-18T09:19:13.151Z,1001.31
2023-02-18T09:20:13.060Z,1001.18
2023-02-18T09:21:13.185Z,1001.30
2023-02-18T09:22:13.245Z,1001.21
2023-02-18T09:23:13.066Z,1001.17
2023-02-18T09:24:13.037Z,1001.12
2023-02-18T09:25:13.248Z,1001.18
2023-02-18T09:26:13.200Z,1001.14
2023-02-18T09:27:13.294Z,1001.20
2023-02-18T09:28:13.173Z,1001.31
2023-02-18T09:29:19.804Z,1001.25
2023-02-18T09:30:13.918Z,1001.30
2023-02-18T09:31:14.491Z,1001.29
2023-02-18T09:32:19.957Z,1001.32
2023-02-18T09:33:13.604Z,1001.38
2023-02-18T09:34:16.310Z,1001.41
2023-02-18T09:35:14.601Z,1001.36
2023-02-18T09:36:13.768Z,1001.42
2023-02-18T09:37:14.048Z,1001.43
2023-02-18T09:39:18.451Z,1001.40
2023-02-18T09:40:15.342Z,1001.42
2023-02-18T09:42:13.093Z,1001.28
2023-02-18T09:43:15.562Z,1001.31
2023-02-18T09:44:18.524Z,1001.32
2023-02-18T09:45:16.454Z,1001.32
2023-02-18T09:46:13.615Z,1001.31
2023-02-18T09:47:13.862Z,1001.34
2023-02-18T09:48:13.980Z,1001.26
2023-02-18T09:49:13.005Z,1001.18
2023-02-18T09:50:19.175Z,1001.17
2023-02-18T09:51:13.872Z,1001.17
2023-02-18T09:52:18.906Z,1001.19
2023-02-18T09:53:13.460Z,1001.27
2023-02-18T09:54:13.418Z,1001.08
2023-02-18T09:55:13.339Z,1001.15
2023-02-18T09:56:13.401Z,1001.07
2023-02-18T09:57:13.458Z,1001.14
2023-02-18T09:58:13.343Z,1000.87
2023-02-18T09:59:13.214Z,1001.11
2023-02-18T10:00:13.167Z,1001.06
2023-02-18T10:01:13.216Z,1001.11
2023-02-18T10:02:13.237Z,1001.18
2023-02-18T10:03:13.526Z,1001.24
2023-02-18T10:04:13.556Z,1001.21
2023-02-18T10:05:18.757Z,1001.20
2023-02-18T10:06:14.251Z,1001.21
2023-02-18T10:07:54.142Z,1001.29
2023-02-18T10:08:42.384Z,1001.19
2023-02-18T10:09:13.673Z,1001.36
2023-02-18T10:10:13.682Z,1001.27
2023-02-18T10:11:14.021Z,1001.34
2023-02-18T10:12:13.176Z,1001.38
2023-02-18T10:13:14.931Z,1001.26
2023-02-18T10:14:13.079Z,1001.38
2023-02-18T10:15:13.335Z,1001.23
2023-02-18T10:16:13.435Z,1001.27
2023-02-18T10:17:15.372Z,1001.30
2023-02-18T10:18:13.610Z,1001.33
2023-02-18T10:20:13.204Z,1001.26
2023-02-18T10:21:13.475Z,1001.20
2023-02-18T10:22:29.676Z,1001.19
2023-02-18T10:23:13.605Z,1001.34
2023-02-18T10:25:14.292Z,1001.10
2023-02-18T10:26:13.581Z,1001.29
2023-02-18T10:27:14.634Z,1001.32
2023-02-18T10:28:13.550Z,1001.15
2023-02-18T10:29:21.931Z,1001.34
2023-02-18T10:31:14.917Z,1001.36
2023-02-18T10:32:42.285Z,1001.31
2023-02-18T10:33:17.846Z,1001.39
2023-02-18T10:34:15.608Z,1001.38
2023-02-18T10:35:14.312Z,1001.41
2023-02-18T10:36:13.507Z,1001.33
2023-02-18T10:37:14.961Z,1001.36
2023-02-18T10:38:12.864Z,1001.39
2023-02-18T10:39:14.033Z,1001.41
2023-02-18T10:40:13.202Z,1001.46
2023-02-18T10:41:13.040Z,1001.36
2023-02-18T10:42:13.077Z,1001.37
2023-02-18T10:43:13.324Z,1001.33
2023-02-18T10:44:13.441Z,1001.36
2023-02-18T10:45:13.517Z,1001.31
2023-02-18T10:46:13.892Z,1001.32
2023-02-18T10:47:12.984Z,1001.47
2023-02-18T10:48:12.908Z,1001.49
2023-02-18T10:49:13.058Z,1001.51
2023-02-18T10:50:13.089Z,1001.48
2023-02-18T10:51:12.958Z,1001.50
2023-02-18T10:52:14.609Z,1001.55
2023-02-18T10:53:14.696Z,1001.51
2023-02-18T10:54:13.586Z,1001.45
2023-02-18T10:55:13.715Z,1001.51
2023-02-18T10:56:13.761Z,1001.53
2023-02-18T10:57:13.831Z,1001.46
2023-02-18T10:58:14.034Z,1001.55
2023-02-18T10:59:13.117Z,1001.51
2023-02-18T11:00:13.234Z,1001.60
2023-02-18T11:01:13.159Z,1001.50
2023-02-18T11:02:13.218Z,1001.56
2023-02-18T11:03:13.480Z,1001.53
2023-02-18T11:04:13.494Z,1001.61
2023-02-18T11:05:13.725Z,1001.53
2023-02-18T11:06:13.918Z,1001.60
2023-02-18T11:07:12.869Z,1001.63
2023-02-18T11:08:14.312Z,1001.64
2023-02-18T11:09:13.350Z,1001.65
2023-02-18T11:10:13.391Z,1001.65
2023-02-18T11:11:13.404Z,1001.55
2023-02-18T11:12:13.323Z,1001.67
2023-02-18T11:13:13.333Z,1001.62
2023-02-18T11:14:13.228Z,1001.65
2023-02-18T11:15:13.471Z,1001.74
2023-02-18T11:16:14.154Z,1001.68
2023-02-18T11:17:13.302Z,1001.78
2023-02-18T11:18:13.369Z,1001.61
2023-02-18T11:19:13.381Z,1001.67
2023-02-18T11:20:13.303Z,1001.71
2023-02-18T11:21:13.545Z,1001.65
2023-02-18T11:22:13.664Z,1001.69
2023-02-18T11:23:13.743Z,1001.73
2023-02-18T11:24:13.840Z,1001.78
2023-02-18T11:25:13.699Z,1001.78
2023-02-18T11:26:13.943Z,1001.72
2023-02-18T11:27:14.646Z,1001.69
2023-02-18T11:28:13.697Z,1001.65
2023-02-18T11:29:13.871Z,1001.66
2023-02-18T11:30:12.844Z,1001.74
2023-02-18T11:31:14.123Z,1001.64
2023-02-18T11:32:13.674Z,1001.71
2023-02-18T11:33:15.184Z,1001.44
2023-02-18T11:34:12.927Z,1001.64
2023-02-18T11:35:12.931Z,1001.66
2023-02-18T11:36:12.834Z,1001.57
2023-02-18T11:38:13.865Z,1001.62
2023-02-18T11:39:15.679Z,1001.68
2023-02-18T11:41:25.814Z,1001.61
2023-02-18T11:42:14.721Z,1001.62
2023-02-18T11:43:36.970Z,1001.66
2023-02-18T11:44:13.823Z,1001.73
2023-02-18T11:45:15.251Z,1001.64
2023-02-18T11:46:13.973Z,1001.53
2023-02-18T11:47:13.195Z,1001.64
2023-02-18T11:48:13.413Z,1001.66
2023-02-18T11:49:14.263Z,1001.55
2023-02-18T11:50:13.657Z,1001.54
2023-02-18T11:51:13.958Z,1001.59
2023-02-18T11:52:44.994Z,1001.64
2023-02-18T11:53:13.087Z,1001.59
2023-02-18T11:54:13.574Z,1001.61
2023-02-18T11:55:13.735Z,1001.57
2023-02-18T11:56:13.972Z,1001.62
2023-02-18T11:57:13.104Z,1001.61
2023-02-18T11:58:13.145Z,1001.62
2023-02-18T11:59:13.077Z,1001.52
2023-02-18T12:00:13.155Z,1001.60
2023-02-18T12:01:13.096Z,1001.61
2023-02-18T12:02:18.353Z,1001.30
2023-02-18T12:03:13.703Z,1001.52
2023-02-18T12:04:13.852Z,1001.57
2023-02-18T12:05:13.910Z,1001.54
2023-02-18T12:06:14.272Z,1001.63
2023-02-18T12:07:13.284Z,1001.51
2023-02-18T12:08:13.549Z,1001.57
2023-02-18T12:09:13.668Z,1001.61
2023-02-18T12:10:13.750Z,1001.59
2023-02-18T12:11:13.944Z,1001.63
2023-02-18T12:12:13.251Z,1001.66
2023-02-18T12:13:13.545Z,1001.50